createdAt,value
2019-02-14T00:00:54.138Z,86.25
2019-02-14T00:03:21.234Z,86.33
2019-02-14T00:05:48.432Z,86.38
2019-02-14T00:08:15.637Z,86.41
2019-02-14T00:10:42.804Z,86.49
2019-02-14T00:13:10.010Z,86.63
2019-02-14T00:15:37.482Z,86.73
2019-02-14T00:18:04.627Z,86.84
2019-02-14T00:20:32.069Z,86.97
2019-02-14T00:22:59.220Z,87.10
2019-02-14T00:25:26.376Z,87.06
2019-02-14T00:27:53.992Z,87.11
2019-02-14T00:30:21.459Z,87.19
2019-02-14T00:32:48.508Z,87.26
2019-02-14T00:35:15.917Z,87.26
2019-02-14T00:37:43.071Z,87.23
2019-02-14T00:40:10.149Z,87.37
2019-02-14T00:42:37.360Z,87.49
2019-02-14T00:45:04.818Z,87.49
2019-02-14T00:47:31.863Z,87.58
2019-02-14T00:49:59.065Z,87.64
2019-02-14T00:52:26.238Z,87.66
2019-02-14T00:54:53.474Z,87.62
2019-02-14T00:57:20.689Z,87.62
2019-02-14T00:59:47.845Z,87.64
2019-02-14T01:02:15.051Z,87.71
2019-02-14T01:04:42.224Z,87.71
2019-02-14T01:07:09.409Z,87.82
2019-02-14T01:09:36.837Z,87.87
2019-02-14T01:12:04.342Z,87.88
2019-02-14T01:14:31.797Z,87.89
2019-02-14T01:16:58.884Z,87.92
2019-02-14T01:19:26.091Z,88.06
2019-02-14T01:21:53.216Z,88.15
2019-02-14T01:24:20.388Z,88.10
2019-02-14T01:26:47.910Z,88.06
2019-02-14T01:29:15.348Z,88.04
2019-02-14T01:31:42.553Z,88.10
2019-02-14T01:34:10.036Z,88.18
2019-02-14T01:36:37.199Z,88.16
2019-02-14T01:39:05.259Z,88.12
2019-02-14T01:41:32.432Z,88.20
2019-02-14T01:43:59.922Z,88.22
2019-02-14T01:46:27.081Z,88.22
2019-02-14T01:48:54.268Z,88.21
2019-02-14T01:51:22.866Z,88.26
2019-02-14T01:53:50.077Z,88.27
2019-02-14T01:56:17.304Z,88.30
2019-02-14T01:58:44.464Z,88.36
2019-02-14T02:01:11.848Z,88.39
2019-02-14T02:03:39.034Z,88.42
2019-02-14T02:06:06.150Z,88.45
2019-02-14T02:08:33.514Z,88.51
2019-02-14T02:11:00.825Z,88.48
2019-02-14T02:13:28.252Z,88.52
2019-02-14T02:15:55.443Z,88.54
2019-02-14T02:18:22.946Z,88.52
2019-02-14T02:20:50.012Z,88.51
2019-02-14T02:23:17.217Z,88.58
2019-02-14T02:25:44.555Z,88.58
2019-02-14T02:28:11.737Z,88.55
2019-02-14T02:30:38.875Z,88.56
2019-02-14T02:33:06.067Z,88.57
2019-02-14T02:35:33.398Z,88.59
2019-02-14T02:38:00.908Z,88.61
2019-02-14T02:40:28.085Z,88.60
2019-02-14T02:42:55.304Z,88.58
2019-02-14T02:45:22.374Z,88.58
2019-02-14T02:47:49.441Z,88.56
2019-02-14T02:50:16.498Z,88.61
2019-02-14T02:52:44.147Z,88.71
2019-02-14T02:55:11.290Z,88.71
2019-02-14T02:57:38.467Z,88.66
2019-02-14T03:00:09.587Z,88.64
2019-02-14T03:02:36.763Z,88.60
2019-02-14T03:05:04.589Z,88.62
2019-02-14T03:07:31.898Z,88.60
2019-02-14T03:09:59.070Z,88.60
2019-02-14T03:12:26.524Z,88.60
2019-02-14T03:14:53.697Z,88.60
2019-02-14T03:17:20.880Z,88.53
2019-02-14T03:19:48.022Z,88.47
2019-02-14T03:22:15.196Z,88.40
2019-02-14T03:24:42.428Z,88.37
2019-02-14T03:27:09.504Z,88.34
2019-02-14T03:29:36.661Z,88.33
2019-02-14T03:32:04.086Z,88.35
2019-02-14T03:34:31.216Z,88.42
2019-02-14T03:36:58.640Z,88.60
2019-02-14T03:39:25.846Z,88.57
2019-02-14T03:41:53.200Z,88.39
2019-02-14T03:44:20.620Z,88.05
2019-02-14T03:46:47.845Z,87.40
2019-02-14T03:49:14.995Z,86.62
2019-02-14T03:51:42.144Z,86.07
2019-02-14T03:54:09.364Z,85.73
2019-02-14T03:56:36.852Z,85.55
2019-02-14T03:59:04.071Z,85.43
2019-02-14T04:01:31.338Z,85.36
2019-02-14T04:03:58.510Z,85.18
2019-02-14T04:06:27.380Z,84.80
2019-02-14T04:08:54.658Z,84.30
2019-02-14T04:11:21.786Z,84.04
2019-02-14T04:13:48.876Z,83.88
2019-02-14T04:16:16.037Z,83.81
2019-02-14T04:18:43.212Z,84.04
2019-02-14T04:21:10.349Z,84.37
2019-02-14T04:23:37.551Z,84.71
2019-02-14T04:26:04.770Z,84.99
2019-02-14T04:28:32.043Z,85.35
2019-02-14T04:30:59.241Z,85.61
2019-02-14T04:33:26.431Z,85.71
2019-02-14T04:35:53.588Z,85.96
2019-02-14T04:38:20.762Z,86.01
2019-02-14T04:40:47.943Z,86.02
2019-02-14T04:43:15.114Z,86.18
2019-02-14T04:45:42.211Z,86.42
2019-02-14T04:48:09.258Z,86.51
2019-02-14T04:50:36.304Z,86.57
2019-02-14T04:53:03.649Z,86.63
2019-02-14T04:55:30.941Z,86.73
2019-02-14T04:57:58.447Z,86.95
2019-02-14T05:00:25.684Z,87.04
2019-02-14T05:02:52.871Z,87.16
2019-02-14T05:05:20.050Z,87.22
2019-02-14T05:07:47.230Z,87.33
2019-02-14T05:10:14.385Z,87.44
2019-02-14T05:12:41.560Z,87.51
2019-02-14T05:15:08.801Z,87.50
2019-02-14T05:17:35.837Z,87.50
2019-02-14T05:20:03.385Z,87.57
2019-02-14T05:22:30.890Z,87.62
2019-02-14T05:24:58.340Z,87.67
2019-02-14T05:27:25.535Z,87.72
2019-02-14T05:29:52.729Z,87.75
2019-02-14T05:32:19.912Z,87.85
2019-02-14T05:34:47.058Z,87.94
2019-02-14T05:37:14.150Z,88.00
2019-02-14T05:39:41.334Z,88.07
2019-02-14T05:42:08.491Z,88.12
2019-02-14T05:44:35.739Z,88.21
2019-02-14T05:47:02.795Z,88.34
2019-02-14T05:49:29.983Z,88.44
2019-02-14T05:51:57.199Z,88.56
2019-02-14T05:54:24.405Z,88.63
2019-02-14T05:56:51.553Z,88.67
2019-02-14T05:59:18.798Z,88.69
2019-02-14T06:01:46.041Z,88.70
2019-02-14T06:04:13.233Z,88.62
2019-02-14T06:06:40.453Z,88.63
2019-02-14T06:09:07.647Z,88.62
2019-02-14T06:11:34.832Z,88.64
2019-02-14T06:14:01.961Z,88.75
2019-02-14T06:16:29.204Z,88.77
2019-02-14T06:18:56.639Z,88.79
2019-02-14T06:21:23.819Z,88.85
2019-02-14T06:23:51.016Z,88.90
2019-02-14T06:26:18.201Z,88.90
2019-02-14T06:28:45.463Z,88.94
2019-02-14T06:31:12.604Z,89.01
2019-02-14T06:33:39.764Z,89.06
2019-02-14T06:36:06.852Z,89.05
2019-02-14T06:38:34.059Z,89.03
2019-02-14T06:41:01.220Z,89.01
2019-02-14T06:43:28.444Z,89.10
2019-02-14T06:45:55.688Z,89.13
2019-02-14T06:48:22.899Z,89.19
2019-02-14T06:50:50.104Z,89.28
2019-02-14T06:53:17.368Z,89.12
2019-02-14T06:55:44.747Z,88.76
2019-02-14T06:58:12.881Z,88.33
2019-02-14T07:00:40.260Z,87.79
2019-02-14T07:03:07.504Z,87.49
2019-02-14T07:05:34.632Z,87.17
2019-02-14T07:08:02.072Z,86.80
2019-02-14T07:10:29.555Z,86.38
2019-02-14T07:12:56.756Z,85.51
2019-02-14T07:15:24.220Z,84.44
2019-02-14T07:17:51.288Z,83.42
2019-02-14T07:20:18.554Z,82.60
2019-02-14T07:22:45.793Z,82.10
2019-02-14T07:25:12.995Z,81.49
2019-02-14T07:27:40.229Z,80.55
2019-02-14T07:30:10.896Z,79.71
2019-02-14T07:32:38.081Z,79.06
2019-02-14T07:35:05.936Z,76.52
2019-02-14T07:37:32.978Z,74.69
2019-02-14T07:40:00.332Z,74.40
2019-02-14T07:42:27.520Z,74.54
2019-02-14T07:44:54.745Z,74.08
2019-02-14T07:47:21.899Z,73.95
2019-02-14T07:49:49.094Z,73.07
2019-02-14T07:52:24.854Z,72.21
2019-02-14T07:54:45.800Z,70.53
2019-02-14T07:57:13.010Z,69.60
2019-02-14T07:59:40.273Z,68.52
2019-02-14T08:02:07.535Z,66.67
2019-02-14T08:04:34.750Z,63.25
2019-02-14T08:07:02.477Z,60.56
2019-02-14T08:09:29.718Z,60.11
2019-02-14T08:11:56.907Z,61.43
2019-02-14T08:14:24.139Z,61.54
2019-02-14T08:16:51.379Z,60.39
2019-02-14T08:19:18.910Z,58.88
2019-02-14T08:21:46.147Z,55.67
2019-02-14T08:24:13.251Z,53.92
2019-02-14T08:26:40.517Z,52.19
2019-02-14T08:29:07.744Z,51.43
2019-02-14T08:31:36.299Z,50.77
2019-02-14T08:34:03.499Z,51.73
2019-02-14T08:36:30.813Z,52.62
2019-02-14T08:38:57.992Z,53.88
2019-02-14T08:41:25.256Z,54.81
2019-02-14T08:43:52.793Z,55.32
2019-02-14T08:46:20.062Z,55.74
2019-02-14T08:48:47.260Z,56.52
2019-02-14T08:51:14.543Z,57.25
2019-02-14T08:53:41.801Z,57.91
2019-02-14T08:56:09.333Z,58.02
2019-02-14T08:58:36.509Z,55.22
2019-02-14T09:01:03.670Z,50.41
2019-02-14T09:03:30.929Z,44.66
2019-02-14T09:05:58.047Z,39.31
2019-02-14T09:08:25.418Z,34.90
2019-02-14T09:10:52.637Z,31.37
2019-02-14T09:13:19.837Z,30.08
2019-02-14T09:15:47.022Z,29.76
2019-02-14T09:18:14.312Z,29.94
2019-02-14T09:20:41.383Z,30.07
2019-02-14T09:23:08.534Z,30.95
2019-02-14T09:25:35.790Z,33.18
2019-02-14T09:28:03.050Z,35.99
2019-02-14T09:30:30.234Z,38.66
2019-02-14T09:32:58.147Z,40.90
2019-02-14T09:35:27.149Z,43.19
2019-02-14T09:38:02.738Z,45.34
2019-02-14T09:40:23.523Z,47.23
2019-02-14T09:42:50.571Z,48.38
2019-02-14T09:45:17.824Z,49.78
2019-02-14T09:47:44.924Z,49.65
2019-02-14T09:50:12.124Z,49.88
2019-02-14T09:52:39.644Z,50.31
2019-02-14T09:55:07.334Z,51.36
2019-02-14T09:57:34.511Z,51.98
2019-02-14T10:00:01.704Z,52.38
2019-02-14T10:02:30.788Z,51.78
2019-02-14T10:04:57.997Z,51.40
2019-02-14T10:07:25.218Z,50.99
2019-02-14T10:09:52.425Z,51.14
2019-02-14T10:12:19.601Z,51.61
2019-02-14T10:14:46.814Z,51.98
2019-02-14T10:17:22.011Z,52.06
2019-02-14T10:19:43.109Z,52.23
2019-02-14T10:22:10.331Z,51.60
2019-02-14T10:24:37.540Z,51.47
2019-02-14T10:27:04.714Z,51.32
2019-02-14T10:29:32.193Z,51.37
2019-02-14T10:31:59.369Z,51.52
2019-02-14T10:34:26.520Z,51.46
2019-02-14T10:36:53.706Z,51.14
2019-02-14T10:39:20.895Z,50.60
2019-02-14T10:41:48.059Z,50.11
2019-02-14T10:44:15.265Z,50.68
2019-02-14T10:46:42.472Z,50.07
2019-02-14T10:49:09.963Z,50.33
2019-02-14T10:51:37.201Z,50.52
2019-02-14T10:54:04.409Z,50.69
2019-02-14T10:56:31.583Z,50.99
2019-02-14T10:58:59.212Z,51.03
2019-02-14T11:01:26.510Z,51.10
2019-02-14T11:03:53.683Z,50.88
2019-02-14T11:06:20.849Z,50.79
2019-02-14T11:08:48.535Z,51.22
2019-02-14T11:11:15.832Z,51.81
2019-02-14T11:13:43.342Z,51.94
2019-02-14T11:16:10.561Z,51.87
2019-02-14T11:18:43.976Z,51.61
2019-02-14T11:21:06.825Z,51.07
2019-02-14T11:23:34.065Z,50.43
2019-02-14T11:26:01.287Z,50.37
2019-02-14T11:28:28.514Z,49.94
2019-02-14T11:30:55.753Z,48.17
2019-02-14T11:33:22.970Z,47.50
2019-02-14T11:35:50.096Z,47.28
2019-02-14T11:38:17.279Z,47.56
2019-02-14T11:40:44.505Z,45.80
2019-02-14T11:43:11.849Z,45.98
2019-02-14T11:45:39.082Z,46.11
2019-02-14T11:48:06.184Z,46.18
2019-02-14T11:50:33.302Z,45.65
2019-02-14T11:53:02.765Z,45.70
2019-02-14T11:55:29.975Z,45.35
2019-02-14T11:57:57.173Z,42.70
2019-02-14T12:00:24.844Z,42.18
2019-02-14T12:02:55.403Z,42.27
2019-02-14T12:05:21.479Z,41.98
2019-02-14T12:07:48.679Z,41.86
2019-02-14T12:10:16.180Z,42.33
2019-02-14T12:12:43.352Z,41.32
2019-02-14T12:15:10.618Z,40.89
2019-02-14T12:17:37.690Z,41.06
2019-02-14T12:20:05.482Z,41.15
2019-02-14T12:22:32.699Z,40.19
2019-02-14T12:25:00.330Z,40.39
2019-02-14T12:27:27.526Z,40.83
2019-02-14T12:29:54.687Z,41.52
2019-02-14T12:32:21.862Z,41.28
2019-02-14T12:34:48.974Z,42.02
2019-02-14T12:37:16.243Z,42.56
2019-02-14T12:39:43.790Z,41.70
2019-02-14T12:42:11.002Z,41.78
2019-02-14T12:44:38.353Z,41.43
2019-02-14T12:47:05.468Z,41.79
2019-02-14T12:49:32.622Z,41.57
2019-02-14T12:52:00.161Z,41.32
2019-02-14T12:54:27.361Z,41.10
2019-02-14T12:56:54.592Z,41.25
2019-02-14T12:59:21.870Z,40.94
2019-02-14T13:01:49.082Z,41.30
2019-02-14T13:04:16.271Z,41.55
2019-02-14T13:06:43.557Z,42.02
2019-02-14T13:09:19.840Z,42.60
2019-02-14T13:11:39.909Z,42.62
2019-02-14T13:14:07.113Z,43.23
2019-02-14T13:16:34.211Z,43.12
2019-02-14T13:19:01.743Z,43.63
2019-02-14T13:21:29.160Z,44.41
2019-02-14T13:23:56.328Z,44.36
2019-02-14T13:26:23.591Z,44.82
2019-02-14T13:28:50.785Z,45.03
2019-02-14T13:31:17.983Z,45.36
2019-02-14T13:33:45.242Z,45.24
2019-02-14T13:36:12.503Z,45.18
2019-02-14T13:38:39.716Z,45.14
2019-02-14T13:41:06.899Z,45.27
2019-02-14T13:43:34.165Z,46.39
2019-02-14T13:46:01.353Z,46.78
2019-02-14T13:48:28.780Z,47.14
2019-02-14T13:50:55.874Z,47.56
2019-02-14T13:53:23.099Z,47.88
2019-02-14T13:55:50.257Z,47.52
2019-02-14T13:58:17.404Z,47.97
2019-02-14T14:00:44.596Z,48.13
2019-02-14T14:03:11.653Z,48.38
2019-02-14T14:05:38.750Z,48.35
2019-02-14T14:08:05.946Z,48.48
2019-02-14T14:10:33.162Z,48.48
2019-02-14T14:13:00.396Z,48.71
2019-02-14T14:15:27.559Z,49.17
2019-02-14T14:17:54.914Z,49.63
2019-02-14T14:20:22.114Z,49.58
2019-02-14T14:22:49.592Z,49.44
2019-02-14T14:25:16.809Z,49.46
2019-02-14T14:27:47.045Z,49.55
2019-02-14T14:30:14.240Z,49.36
2019-02-14T14:32:41.512Z,49.49
2019-02-14T14:35:10.690Z,49.88
2019-02-14T14:37:38.137Z,49.92
2019-02-14T14:40:06.311Z,49.83
2019-02-14T14:42:55.935Z,50.04
2019-02-14T14:45:44.843Z,50.05
2019-02-14T14:48:20.644Z,49.95
2019-02-14T14:50:47.739Z,50.34
2019-02-14T14:53:14.961Z,50.35
2019-02-14T14:55:42.140Z,50.10
2019-02-14T14:58:11.526Z,49.96
2019-02-14T15:00:38.757Z,50.00
2019-02-14T15:03:05.980Z,49.94
2019-02-14T15:05:33.375Z,49.67
2019-02-14T15:08:00.570Z,49.03
2019-02-14T15:10:27.919Z,48.79
2019-02-14T15:12:55.406Z,48.75
2019-02-14T15:15:22.600Z,48.62
2019-02-14T15:17:49.712Z,48.27
2019-02-14T15:20:16.897Z,48.14
2019-02-14T15:22:44.094Z,48.12
2019-02-14T15:25:11.357Z,48.20
2019-02-14T15:27:38.518Z,48.32
2019-02-14T15:30:05.697Z,48.33
2019-02-14T15:32:34.758Z,48.04
2019-02-14T15:35:02.553Z,47.40
2019-02-14T15:37:29.847Z,47.49
2019-02-14T15:40:08.290Z,48.06
2019-02-14T15:42:26.366Z,48.13
2019-02-14T15:44:53.626Z,48.04
2019-02-14T15:47:20.884Z,48.09
2019-02-14T15:49:49.361Z,48.21
2019-02-14T15:52:16.592Z,48.20
2019-02-14T15:54:43.808Z,48.27
2019-02-14T15:57:10.972Z,48.62
2019-02-14T15:59:40.489Z,48.90
2019-02-14T16:02:08.448Z,49.39
2019-02-14T16:04:35.812Z,49.71
2019-02-14T16:07:03.042Z,49.83
2019-02-14T16:09:30.307Z,50.72
2019-02-14T16:11:57.991Z,50.95
2019-02-14T16:14:25.215Z,50.94
2019-02-14T16:16:52.527Z,51.22
2019-02-14T16:19:19.590Z,51.11
2019-02-14T16:21:46.794Z,50.90
2019-02-14T16:24:14.730Z,50.63
2019-02-14T16:26:43.022Z,50.87
2019-02-14T16:29:10.454Z,51.21
2019-02-14T16:31:38.012Z,51.51
2019-02-14T16:34:05.219Z,52.01
2019-02-14T16:36:32.722Z,52.18
2019-02-14T16:39:01.365Z,52.27
2019-02-14T16:41:28.980Z,52.68
2019-02-14T16:43:56.169Z,52.94
2019-02-14T16:46:23.377Z,52.71
2019-02-14T16:48:50.623Z,53.00
2019-02-14T16:51:17.786Z,53.57
2019-02-14T16:53:45.036Z,53.92
2019-02-14T16:56:12.256Z,54.97
2019-02-14T16:58:39.744Z,54.54
2019-02-14T17:01:06.848Z,54.08
2019-02-14T17:03:34.345Z,53.80
2019-02-14T17:06:01.404Z,53.34
2019-02-14T17:08:28.919Z,53.81
2019-02-14T17:10:56.081Z,54.52
2019-02-14T17:13:23.624Z,55.79
2019-02-14T17:15:50.833Z,56.21
2019-02-14T17:18:18.023Z,56.64
2019-02-14T17:20:45.099Z,57.18
2019-02-14T17:23:12.371Z,58.03
2019-02-14T17:25:39.529Z,58.73
2019-02-14T17:28:06.741Z,60.27
2019-02-14T17:30:33.946Z,61.69
2019-02-14T17:33:01.021Z,62.55
2019-02-14T17:35:28.242Z,63.29
2019-02-14T17:37:55.491Z,64.41
2019-02-14T17:40:22.728Z,65.38
2019-02-14T17:42:50.133Z,66.18
2019-02-14T17:45:17.392Z,67.13
2019-02-14T17:47:44.637Z,67.31
2019-02-14T17:50:11.872Z,67.66
2019-02-14T17:52:39.386Z,68.25
2019-02-14T17:55:06.774Z,68.21
2019-02-14T17:57:33.981Z,68.38
2019-02-14T18:00:01.245Z,68.18
2019-02-14T18:02:28.774Z,68.06
2019-02-14T18:04:55.971Z,67.74
2019-02-14T18:07:23.226Z,67.43
2019-02-14T18:09:50.381Z,67.34
2019-02-14T18:12:17.814Z,67.34
2019-02-14T18:14:45.082Z,67.05
2019-02-14T18:17:12.133Z,67.48
2019-02-14T18:19:39.404Z,67.53
2019-02-14T18:22:07.004Z,67.85
2019-02-14T18:24:34.167Z,68.13
2019-02-14T18:27:01.364Z,68.33
2019-02-14T18:29:28.518Z,68.32
2019-02-14T18:31:56.413Z,68.43
2019-02-14T18:34:23.637Z,68.71
2019-02-14T18:36:51.182Z,69.12
2019-02-14T18:39:18.389Z,69.29
2019-02-14T18:41:45.588Z,69.81
2019-02-14T18:44:12.826Z,70.15
2019-02-14T18:46:39.989Z,70.71
2019-02-14T18:49:07.270Z,71.01
2019-02-14T18:51:34.474Z,71.25
2019-02-14T18:54:01.682Z,71.80
2019-02-14T18:56:29.021Z,71.92
2019-02-14T18:58:56.272Z,72.17
2019-02-14T19:01:23.740Z,72.58
2019-02-14T19:03:50.895Z,72.89
2019-02-14T19:06:18.102Z,73.29
2019-02-14T19:08:45.340Z,73.35
2019-02-14T19:11:15.127Z,73.63
2019-02-14T19:13:41.601Z,73.87
2019-02-14T19:16:08.851Z,74.22
2019-02-14T19:18:36.064Z,74.44
2019-02-14T19:21:03.182Z,74.67
2019-02-14T19:23:30.947Z,74.83
2019-02-14T19:25:58.156Z,75.11
2019-02-14T19:28:25.392Z,75.22
2019-02-14T19:30:52.628Z,75.19
2019-02-14T19:33:19.908Z,75.33
2019-02-14T19:35:46.995Z,75.61
2019-02-14T19:38:14.749Z,76.08
2019-02-14T19:40:42.013Z,76.23
2019-02-14T19:43:09.232Z,76.38
2019-02-14T19:45:36.983Z,76.59
2019-02-14T19:48:04.112Z,76.93
2019-02-14T19:50:31.288Z,77.23
2019-02-14T19:52:58.409Z,77.28
2019-02-14T19:55:25.581Z,77.55
2019-02-14T19:57:52.830Z,77.65
2019-02-14T20:00:20.034Z,77.77
2019-02-14T20:02:47.076Z,77.95
2019-02-14T20:05:14.309Z,78.11
2019-02-14T20:07:41.471Z,78.49
2019-02-14T20:10:09.575Z,78.53
2019-02-14T20:12:37.422Z,78.62
2019-02-14T20:15:06.468Z,78.78
2019-02-14T20:17:33.692Z,78.89
2019-02-14T20:20:01.285Z,79.03
2019-02-14T20:22:28.557Z,79.32
2019-02-14T20:24:55.878Z,79.50
2019-02-14T20:27:23.165Z,79.70
2019-02-14T20:29:50.272Z,79.68
2019-02-14T20:32:17.926Z,79.84
2019-02-14T20:34:45.000Z,80.02
2019-02-14T20:37:12.201Z,80.04
2019-02-14T20:39:39.435Z,80.26
2019-02-14T20:42:06.906Z,80.06
2019-02-14T20:44:34.175Z,79.50
2019-02-14T20:47:01.530Z,78.63
2019-02-14T20:49:28.874Z,78.45
2019-02-14T20:51:56.197Z,78.59
2019-02-14T20:54:23.510Z,78.94
2019-02-14T20:56:50.792Z,78.88
2019-02-14T20:59:17.998Z,78.94
2019-02-14T21:01:45.318Z,79.02
2019-02-14T21:04:12.653Z,77.55
2019-02-14T21:06:39.909Z,76.68
2019-02-14T21:09:07.218Z,75.68
2019-02-14T21:11:34.327Z,75.24
2019-02-14T21:14:01.505Z,75.23
2019-02-14T21:16:28.903Z,75.13
2019-02-14T21:18:56.130Z,75.18
2019-02-14T21:21:23.717Z,75.06
2019-02-14T21:23:50.933Z,75.07
2019-02-14T21:26:18.647Z,74.78
2019-02-14T21:28:45.851Z,74.90
2019-02-14T21:31:13.393Z,75.11
2019-02-14T21:33:40.629Z,75.06
2019-02-14T21:36:07.770Z,75.07
2019-02-14T21:38:34.980Z,75.40
2019-02-14T21:41:02.256Z,75.07
2019-02-14T21:43:29.493Z,75.37
2019-02-14T21:45:56.981Z,75.96
2019-02-14T21:48:24.223Z,76.32
2019-02-14T21:50:51.303Z,76.71
2019-02-14T21:53:18.875Z,77.09
2019-02-14T21:55:46.098Z,77.51
2019-02-14T21:58:13.235Z,77.74
2019-02-14T22:00:40.720Z,77.98
2019-02-14T22:03:08.258Z,78.45
2019-02-14T22:05:35.719Z,78.95
2019-02-14T22:08:03.231Z,79.13
2019-02-14T22:10:30.445Z,79.23
2019-02-14T22:12:57.884Z,79.45
2019-02-14T22:15:25.218Z,79.64
2019-02-14T22:17:52.841Z,79.71
2019-02-14T22:20:20.339Z,79.77
2019-02-14T22:22:47.897Z,79.93
2019-02-14T22:25:15.440Z,80.15
2019-02-14T22:27:42.608Z,80.34
2019-02-14T22:30:14.739Z,80.59
2019-02-14T22:32:42.243Z,80.78
2019-02-14T22:35:09.485Z,81.00
2019-02-14T22:37:36.690Z,81.21
2019-02-14T22:40:03.980Z,81.43
2019-02-14T22:42:31.448Z,81.46
2019-02-14T22:44:58.533Z,81.54
2019-02-14T22:47:25.833Z,81.66
2019-02-14T22:49:52.988Z,81.76
2019-02-14T22:52:20.274Z,81.96
2019-02-14T22:54:47.479Z,82.21
2019-02-14T22:57:14.698Z,82.33
2019-02-14T22:59:41.861Z,82.47
2019-02-14T23:02:09.284Z,82.63
2019-02-14T23:04:36.458Z,82.82
2019-02-14T23:07:03.662Z,82.84
2019-02-14T23:09:30.920Z,82.96
2019-02-14T23:11:58.142Z,83.02
2019-02-14T23:14:25.327Z,83.07
2019-02-14T23:16:52.781Z,83.08
2019-02-14T23:19:19.998Z,83.17
2019-02-14T23:21:47.120Z,83.33
2019-02-14T23:24:14.646Z,83.47
2019-02-14T23:26:41.697Z,83.39
2019-02-14T23:29:08.944Z,83.57
2019-02-14T23:31:36.144Z,83.61
2019-02-14T23:34:03.303Z,83.31
2019-02-14T23:36:30.486Z,83.15
2019-02-14T23:38:57.669Z,83.07
2019-02-14T23:41:24.879Z,83.08
2019-02-14T23:43:52.042Z,83.21
2019-02-14T23:46:19.251Z,83.36
2019-02-14T23:48:46.415Z,83.45
2019-02-14T23:51:13.593Z,83.52
2019-02-14T23:53:40.765Z,83.63
2019-02-14T23:56:07.965Z,83.69
2019-02-14T23:58:35.094Z,83.66
